Time;durP1;ratioP1;P1;durP2;ratioP2;P2;SDS_P1;SDS_P2;PMS_P1;PMS_P2;Temp;Humidity;BMP_temperature;BMP_pressure;BME280_temperature;BME280_humidity;BME280_pressure;Samples;Min_cycle;Max_cycle;Signal;HPM_P1;HPM_P2
2022/05/10 00:01:27;;;;;;;8.45;5.25;;;;;;;9.74;99.04;98964.88;5053539;28;20044;-69
2022/05/10 00:03:52;;;;;;;;;;;;;;;9.70;98.51;98961.41;5043918;28;20041;-69
2022/05/10 00:06:18;;;;;;;11.57;6.60;;;;;;;9.60;98.70;98956.28;5043692;28;19915;-69
2022/05/10 00:08:44;;;;;;;11.75;5.60;;;;;;;9.58;99.04;98947.53;5043672;28;20040;-69
2022/05/10 00:11:10;;;;;;;10.20;5.88;;;;;;;9.65;99.38;98959.75;5043622;28;20021;-69
2022/05/10 00:13:36;;;;;;;10.52;5.53;;;;;;;9.65;99.01;98954.47;5043651;28;20028;-69
2022/05/10 00:16:03;;;;;;;9.25;6.30;;;;;;;9.76;98.69;98957.84;5043618;28;20022;-69
2022/05/10 00:18:29;;;;;;;9.35;6.53;;;;;;;9.74;98.62;98949.97;5043734;28;20080;-69
2022/05/10 00:20:55;;;;;;;9.45;6.00;;;;;;;9.68;98.45;98938.69;5047448;28;20030;-69
2022/05/10 00:23:20;;;;;;;9.70;5.22;;;;;;;9.54;97.70;98937.94;5047440;28;20032;-69
2022/05/10 00:25:46;;;;;;;9.00;5.90;;;;;;;9.57;98.01;98930.91;5047415;28;20305;-69
2022/05/10 00:28:11;;;;;;;9.10;5.22;;;;;;;9.65;98.42;98936.09;5057960;28;20040;-69
2022/05/10 00:30:38;;;;;;;9.95;6.75;;;;;;;9.62;98.32;98928.22;5067240;28;20051;-69
2022/05/10 00:33:03;;;;;;;9.23;5.85;;;;;;;9.55;97.89;98929.19;5067218;28;20382;-69
2022/05/10 00:35:32;;;;;;;8.13;5.55;;;;;;;9.32;97.27;98923.28;5067225;28;20044;-69
2022/05/10 00:38:00;;;;;;;9.30;5.60;;;;;;;9.30;97.45;98925.06;5066937;28;20025;-69
2022/05/10 00:40:29;;;;;;;7.30;5.32;;;;;;;9.44;98.52;98928.41;5067002;28;20017;-69
2022/05/10 00:43:01;;;;;;;7.90;5.43;;;;;;;9.42;98.18;98933.69;5067043;28;20021;-69
2022/05/10 00:45:39;;;;;;;7.20;4.95;;;;;;;9.49;97.98;98929.25;5067044;28;20217;-69
2022/05/10 00:48:22;;;;;;;6.78;4.72;;;;;;;9.41;97.51;98929.31;5067010;28;20059;-69
2022/05/10 00:51:14;;;;;;;9.85;5.85;;;;;;;9.33;97.29;98932.91;5066890;28;20059;-69
2022/05/10 00:53:52;;;;;;;9.43;5.40;;;;;;;9.26;98.39;98918.06;5066853;28;20333;-69
2022/05/10 00:56:36;;;;;;;6.80;5.07;;;;;;;9.29;98.85;98918.06;5049381;28;20025;-69
2022/05/10 00:59:09;;;;;;;7.85;4.03;;;;;;;9.24;98.42;98925.13;5047273;28;20025;-69
2022/05/10 01:01:37;;;;;;;7.13;5.10;;;;;;;9.26;98.18;98920.69;5067005;28;20044;-70
2022/05/10 01:04:18;;;;;;;6.82;4.75;;;;;;;9.16;99.36;98924.31;5066516;28;20044;-70
2022/05/10 01:06:53;;;;;;;6.32;5.13;;;;;;;9.30;99.86;98930.31;5066885;28;20100;-69
2022/05/10 01:09:30;;;;;;;7.25;5.72;;;;;;;9.27;98.72;98920.69;5066621;28;20040;-69
2022/05/10 01:12:15;;;;;;;8.43;5.57;;;;;;;9.24;99.00;98909.38;5066647;28;20024;-69
2022/05/10 01:14:50;;;;;;;10.82;5.80;;;;;;;9.13;98.71;98900.69;5066503;28;20070;-70
2022/05/10 01:17:16;;;;;;;9.18;5.90;;;;;;;9.05;99.23;98892.88;5066448;28;20316;-69
2022/05/10 01:19:44;;;;;;;8.80;5.78;;;;;;;9.11;100.00;98894.63;5066288;28;20049;-69
2022/05/10 01:22:10;;;;;;;8.35;4.95;;;;;;;9.25;98.77;98900.59;5066312;28;20051;-69
2022/05/10 01:24:57;;;;;;;7.22;5.00;;;;;;;9.21;99.24;98894.47;5066560;28;20025;-69
2022/05/10 01:27:47;;;;;;;7.15;5.15;;;;;;;9.26;99.02;98890.06;5066245;28;20378;-69
2022/05/10 01:30:27;;;;;;;7.43;5.07;;;;;;;9.05;98.19;98886.78;5065128;28;20025;-69
2022/05/10 01:35:54;;;;;;;10.07;4.85;;;;;;;9.04;99.03;98892.91;5066044;28;20031;-69
2022/05/10 01:38:44;;;;;;;9.68;5.28;;;;;;;9.10;99.51;98887.59;5063865;28;20063;-69
2022/05/10 01:41:25;;;;;;;9.02;5.70;;;;;;;9.00;98.63;98880.69;5065353;28;20029;-69
2022/05/10 01:44:05;;;;;;;7.13;5.00;;;;;;;8.98;98.57;98877.25;5055718;28;20032;-69
2022/05/10 01:46:32;;;;;;;7.97;5.22;;;;;;;8.92;98.79;98879.91;5046002;28;20026;-69
2022/05/10 01:49:25;;;;;;;7.50;4.82;;;;;;;9.02;99.04;98876.31;5045888;28;20041;-69
2022/05/10 01:52:22;;;;;;;7.50;5.32;;;;;;;8.92;99.31;98878.13;5053551;28;20375;-69
2022/05/10 01:54:59;;;;;;;10.20;5.57;;;;;;;8.88;99.45;98878.19;5064846;28;20232;-69
2022/05/10 01:57:26;;;;;;;7.88;5.28;;;;;;;8.90;99.24;98872.06;5065443;28;20091;-69
2022/05/10 02:00:03;;;;;;;8.15;6.13;;;;;;;8.88;99.19;98878.19;5065012;28;20237;-69
2022/05/10 02:02:31;;;;;;;8.35;4.85;;;;;;;8.92;98.86;98874.66;5064097;28;20364;-69
2022/05/10 02:05:01;;;;;;;6.90;4.88;;;;;;;8.88;98.12;98879.06;5045390;28;20064;-69
2022/05/10 02:07:30;;;;;;;6.60;4.72;;;;;;;8.89;97.70;98874.69;5045592;28;20071;-69
2022/05/10 02:10:12;;;;;;;9.80;4.97;;;;;;;8.82;96.82;98875.63;5056435;28;20039;-69
2022/05/10 02:12:42;;;;;;;9.20;5.13;;;;;;;8.66;96.32;98886.25;5063416;28;20021;-69
2022/05/10 02:15:10;;;;;;;7.45;5.22;;;;;;;8.59;97.36;98876.69;5046508;28;20025;-69
2022/05/10 02:17:44;;;;;;;5.32;3.78;;;;;;;8.59;97.86;98876.69;5045347;28;20036;-69
2022/05/10 02:20:49;;;;;;;7.50;4.88;;;;;;;8.54;99.26;98873.22;5051208;28;20374;-69
2022/05/10 02:23:24;;;;;;;7.00;4.75;;;;;;;8.40;99.26;98875.06;5044984;28;20037;-69
2022/05/10 02:26:16;;;;;;;8.60;5.30;;;;;;;8.39;99.63;98868.06;5045151;28;20258;-69
2022/05/10 02:28:53;;;;;;;9.05;6.07;;;;;;;8.44;99.54;98865.41;5044945;28;20105;-70
2022/05/10 02:31:30;;;;;;;7.88;5.60;;;;;;;8.40;99.66;98864.59;5055797;28;20025;-69
2022/05/10 02:33:58;;;;;;;10.63;5.57;;;;;;;8.42;99.86;98862.81;5059546;28;20049;-69
2022/05/10 02:36:23;;;;;;;6.25;4.45;;;;;;;8.48;99.73;98862.75;5044986;28;20028;-70
2022/05/10 02:38:48;;;;;;;7.88;5.38;;;;;;;8.53;99.26;98855.75;5044947;28;20025;-69
2022/05/10 02:41:17;;;;;;;10.77;5.68;;;;;;;8.55;99.73;98859.19;5044601;28;20088;-69
2022/05/10 02:44:03;;;;;;;6.90;4.90;;;;;;;8.59;98.75;98858.31;5060293;28;20039;-70
2022/05/10 02:46:29;;;;;;;8.25;5.72;;;;;;;8.57;97.95;98860.06;5063951;28;20095;-69
2022/05/10 02:48:54;;;;;;;7.65;4.85;;;;;;;8.42;98.01;98852.31;5052166;28;20029;-69
2022/05/10 02:51:20;;;;;;;8.07;5.30;;;;;;;8.36;98.10;98852.34;5059686;28;20023;-69
2022/05/10 02:53:46;;;;;;;9.05;5.70;;;;;;;8.38;97.90;98854.97;5063777;28;20198;-69
2022/05/10 02:56:15;;;;;;;7.05;5.07;;;;;;;8.05;96.90;98853.44;5063697;28;20044;-69
2022/05/10 02:58:52;;;;;;;8.63;5.78;;;;;;;7.95;99.92;98856.09;5063986;28;20037;-69
2022/05/10 03:01:39;;;;;;;8.88;5.32;;;;;;;7.92;100.00;98859.63;5063598;28;20029;-69
2022/05/10 03:04:06;;;;;;;6.45;4.60;;;;;;;8.05;100.00;98850.81;5047912;28;20036;-69
2022/05/10 03:06:33;;;;;;;7.20;5.10;;;;;;;8.01;100.00;98859.53;5063636;28;20309;-69
2022/05/10 03:09:00;;;;;;;9.10;5.82;;;;;;;7.99;100.00;98861.31;5063851;28;20095;-69
2022/05/10 03:11:26;;;;;;;8.98;6.43;;;;;;;8.04;100.00;98854.28;5063699;28;20032;-69
2022/05/10 03:13:52;;;;;;;8.27;5.20;;;;;;;8.14;100.00;98850.72;5063694;28;20037;-69
2022/05/10 03:16:18;;;;;;;10.48;5.55;;;;;;;8.07;100.00;98849.03;5063639;28;20024;-70
2022/05/10 03:18:44;;;;;;;9.05;5.05;;;;;;;8.08;100.00;98847.28;5044920;28;20059;-70
2022/05/10 03:21:10;;;;;;;7.47;5.47;;;;;;;8.04;99.75;98848.19;5060048;28;20047;-70
2022/05/10 03:23:36;;;;;;;11.77;6.47;;;;;;;7.96;99.93;98845.63;5044263;28;20325;-70
2022/05/10 03:26:01;;;;;;;8.80;4.80;;;;;;;8.05;99.83;98850.81;5060570;28;20066;-70
2022/05/10 03:28:27;;;;;;;6.63;4.32;;;;;;;8.03;99.97;98847.31;5063723;28;20029;-70
2022/05/10 03:30:53;;;;;;;10.32;5.00;;;;;;;7.94;99.48;98854.38;5064013;28;20084;-69
2022/05/10 03:33:18;;;;;;;7.43;5.10;;;;;;;7.90;99.34;98856.13;5048334;28;20025;-70
2022/05/10 03:35:44;;;;;;;7.32;4.65;;;;;;;7.93;100.00;98850.88;5044061;28;20025;-70
2022/05/10 03:38:09;;;;;;;9.40;5.47;;;;;;;8.03;100.00;98863.03;5043969;28;20028;-70
2022/05/10 03:40:35;;;;;;;9.18;5.47;;;;;;;8.10;100.00;98856.88;5042736;28;20313;-70
2022/05/10 03:43:01;;;;;;;7.70;5.03;;;;;;;8.14;99.72;98861.22;5042992;28;20041;-69
2022/05/10 03:45:27;;;;;;;7.22;4.40;;;;;;;8.08;99.78;98871.75;5048141;28;20221;-70
2022/05/10 03:47:53;;;;;;;6.15;4.00;;;;;;;8.13;98.98;98869.97;5060701;28;20037;-70
2022/05/10 03:50:22;;;;;;;9.13;5.65;;;;;;;7.85;98.66;98863.13;5050865;28;20013;-70
2022/05/10 03:52:48;;;;;;;7.32;4.82;;;;;;;7.74;100.00;98867.56;5044033;28;20025;-70
2022/05/10 03:55:22;;;;;;;8.13;5.15;;;;;;;7.75;100.00;98866.69;5045709;28;20032;-70
2022/05/10 03:57:49;;;;;;;7.45;5.32;;;;;;;7.74;100.00;98870.19;5048535;28;20194;-69
2022/05/10 04:00:18;;;;;;;10.05;6.13;;;;;;;7.90;100.00;98871.84;5046870;28;20096;-70
2022/05/10 04:02:45;;;;;;;10.52;6.28;;;;;;;7.93;100.00;98871.84;5046861;28;20021;-69
2022/05/10 04:05:11;;;;;;;6.28;4.85;;;;;;;7.88;100.00;98872.75;5047920;28;20371;-69
2022/05/10 04:07:37;;;;;;;9.80;5.85;;;;;;;7.93;100.00;98876.19;5059443;28;20048;-69
2022/05/10 04:10:05;;;;;;;6.70;4.70;;;;;;;7.90;99.52;98871.84;5047730;28;20021;-69
2022/05/10 04:12:31;;;;;;;8.20;5.10;;;;;;;8.05;99.33;98876.13;5047953;28;20084;-69
2022/05/10 04:14:56;;;;;;;10.10;5.20;;;;;;;8.14;99.32;98866.44;5047609;28;20387;-69
2022/05/10 04:17:22;;;;;;;6.60;4.70;;;;;;;8.09;98.08;98872.59;5047597;28;20028;-69
2022/05/10 04:19:48;;;;;;;7.65;5.07;;;;;;;8.06;99.30;98877.88;5047457;28;20032;-69
2022/05/10 04:22:14;;;;;;;7.43;4.93;;;;;;;8.02;98.75;98879.66;5047695;28;20033;-69
2022/05/10 04:24:39;;;;;;;11.93;5.85;;;;;;;8.11;97.92;98884.84;5047485;28;20274;-69
2022/05/10 04:27:05;;;;;;;6.53;4.60;;;;;;;8.23;98.28;98892.66;5047423;28;20021;-69
2022/05/10 04:29:30;;;;;;;9.45;5.50;;;;;;;8.32;98.90;98884.72;5047420;28;20021;-69
2022/05/10 04:31:56;;;;;;;8.70;5.53;;;;;;;8.51;98.93;98890.72;5047570;28;20029;-70
2022/05/10 04:34:21;;;;;;;9.20;5.47;;;;;;;8.64;98.25;98889.78;5047221;28;20025;-70
2022/05/10 04:36:47;;;;;;;7.22;5.05;;;;;;;8.38;96.85;98882.06;5047248;28;20036;-70
2022/05/10 04:39:12;;;;;;;6.35;5.03;;;;;;;8.49;96.62;98885.47;5046040;28;20017;-70
2022/05/10 04:41:45;;;;;;;5.68;4.63;;;;;;;8.67;96.67;98893.22;5047117;28;20022;-70
2022/05/10 04:44:11;;;;;;;8.20;5.47;;;;;;;8.72;96.70;98888.81;5047364;28;20359;-70
2022/05/10 04:46:38;;;;;;;8.30;4.78;;;;;;;8.85;96.21;98891.34;5047011;28;20088;-70
2022/05/10 04:49:06;;;;;;;6.72;4.38;;;;;;;9.05;95.51;98889.41;5046962;28;20041;-70
2022/05/10 04:51:31;;;;;;;12.20;5.07;;;;;;;9.13;94.24;98887.56;5047267;28;20240;-70
2022/05/10 04:53:57;;;;;;;8.50;4.85;;;;;;;9.25;94.23;98884.84;5047032;28;20029;-70
2022/05/10 04:56:23;;;;;;;7.45;4.57;;;;;;;9.39;93.81;98882.91;5047135;28;20021;-70
2022/05/10 04:58:49;;;;;;;8.30;5.03;;;;;;;9.44;93.77;98892.50;5046843;28;20025;-70
2022/05/10 05:01:17;;;;;;;5.88;4.50;;;;;;;9.47;93.63;98891.59;5046632;28;20088;-70
2022/05/10 05:03:44;;;;;;;8.93;5.00;;;;;;;9.57;93.28;98895.88;5046750;28;20022;-70
2022/05/10 05:06:09;;;;;;;6.00;4.20;;;;;;;9.69;93.12;98898.38;5046396;28;20241;-70
2022/05/10 05:08:35;;;;;;;5.85;4.47;;;;;;;9.79;92.51;98897.34;5046681;28;20031;-70
2022/05/10 05:11:01;;;;;;;7.60;5.25;;;;;;;9.86;91.12;98902.53;5046641;28;20123;-70
2022/05/10 05:13:27;;;;;;;8.20;5.28;;;;;;;9.69;92.11;98893.09;5046571;28;20194;-70
2022/05/10 05:15:53;;;;;;;7.93;4.55;;;;;;;9.91;93.22;98899.84;5046462;28;20025;-70
2022/05/10 05:18:19;;;;;;;7.72;4.13;;;;;;;10.31;91.73;98906.34;5046440;28;20092;-70
2022/05/10 05:20:44;;;;;;;7.93;5.65;;;;;;;10.42;90.40;98904.44;5046389;28;20350;-70
2022/05/10 05:23:11;;;;;;;5.72;4.25;;;;;;;10.65;90.62;98902.31;5046653;28;20332;-70
2022/05/10 05:25:39;;;;;;;6.70;4.15;;;;;;;10.74;89.50;98910.09;5046376;28;20040;-70
2022/05/10 05:28:05;;;;;;;6.55;4.20;;;;;;;10.85;89.02;98905.50;5046310;28;20029;-70
2022/05/10 05:30:31;;;;;;;7.72;5.03;;;;;;;10.81;89.17;98898.56;5046225;28;20313;-70
2022/05/10 05:32:57;;;;;;;8.85;5.25;;;;;;;10.67;91.10;98901.41;5046150;28;20089;-70
2022/05/10 05:35:22;;;;;;;7.43;4.90;;;;;;;10.71;92.08;98904.88;5046129;28;20021;-70
2022/05/10 05:37:48;;;;;;;5.40;3.88;;;;;;;10.99;90.94;98911.44;5046137;28;20021;-70
2022/05/10 05:40:16;;;;;;;7.65;4.90;;;;;;;11.19;90.06;98911.97;5046043;28;20063;-70
2022/05/10 05:42:42;;;;;;;8.07;5.30;;;;;;;11.30;90.14;98914.41;5046037;28;20031;-70
2022/05/10 05:45:10;;;;;;;8.38;5.03;;;;;;;11.35;89.83;98910.78;5045952;28;20340;-69
2022/05/10 05:47:37;;;;;;;6.43;4.55;;;;;;;11.55;89.06;98911.28;5045952;28;20021;-69
2022/05/10 05:50:04;;;;;;;8.13;5.30;;;;;;;11.79;88.18;98910.84;5045902;28;20340;-70
2022/05/10 05:52:30;;;;;;;6.70;4.13;;;;;;;12.11;86.91;98921.63;5045771;28;20052;-70
2022/05/10 05:54:55;;;;;;;6.72;4.47;;;;;;;12.35;85.86;98921.09;5045800;28;20029;-69
2022/05/10 05:57:22;;;;;;;8.38;5.03;;;;;;;12.55;84.96;98926.81;5045684;28;20057;-69
2022/05/10 05:59:48;;;;;;;10.63;4.97;;;;;;;12.75;83.95;98919.28;5045626;28;20039;-70
2022/05/10 06:02:17;;;;;;;7.15;4.75;;;;;;;12.72;83.47;98919.34;5045594;28;20029;-70
2022/05/10 06:04:43;;;;;;;6.18;4.70;;;;;;;13.24;82.47;98915.47;5045520;28;20052;-70
2022/05/10 06:07:13;;;;;;;7.40;5.10;;;;;;;13.61;81.47;98929.47;5045750;28;20021;-70
2022/05/10 06:09:40;;;;;;;6.38;4.72;;;;;;;14.29;80.09;98931.09;5045735;28;20317;-70
2022/05/10 06:12:06;;;;;;;11.73;5.03;;;;;;;15.00;77.51;98927.09;5045460;28;20067;-70
2022/05/10 06:14:33;;;;;;;6.47;4.88;;;;;;;15.57;75.05;98925.19;5045392;28;20033;-70
2022/05/10 06:16:58;;;;;;;7.68;4.72;;;;;;;16.12;73.67;98927.59;5044701;28;20040;-70
2022/05/10 06:19:24;;;;;;;6.38;4.28;;;;;;;16.76;72.98;98918.94;5045266;28;20021;-70
2022/05/10 06:21:51;;;;;;;7.60;5.03;;;;;;;17.03;71.87;98919.63;5045154;28;20055;-70
2022/05/10 06:24:16;;;;;;;6.38;4.63;;;;;;;17.94;70.44;98927.28;5045481;28;20017;-70
2022/05/10 06:26:42;;;;;;;8.07;4.72;;;;;;;18.59;67.93;98935.84;5045190;28;20217;-70
2022/05/10 06:29:07;;;;;;;7.93;4.90;;;;;;;19.02;67.33;98927.53;5045146;28;20021;-70
2022/05/10 06:31:33;;;;;;;6.38;4.53;;;;;;;19.45;65.70;98929.84;5045023;28;20024;-70
2022/05/10 06:33:58;;;;;;;8.98;5.50;;;;;;;19.69;64.13;98933.97;5045069;28;20108;-70
2022/05/10 06:36:23;;;;;;;9.85;5.00;;;;;;;20.04;63.92;98935.66;5044989;28;20020;-70
2022/05/10 06:38:48;;;;;;;8.52;5.82;;;;;;;20.40;61.93;98933.72;5044929;28;20032;-70
2022/05/10 06:41:14;;;;;;;5.75;4.95;;;;;;;20.87;60.98;98932.00;5044842;28;20029;-70
2022/05/10 06:43:39;;;;;;;8.55;4.93;;;;;;;21.10;61.48;98931.59;5044884;28;20092;-70
2022/05/10 06:46:10;;;;;;;10.07;5.15;;;;;;;21.45;60.16;98931.38;5044859;28;20198;-70
2022/05/10 06:48:35;;;;;;;8.00;5.40;;;;;;;21.88;59.40;98930.56;5045069;28;20299;-70
2022/05/10 06:51:05;;;;;;;8.95;4.80;;;;;;;22.23;57.34;98923.94;5044701;28;20028;-70
2022/05/10 06:53:30;;;;;;;9.88;4.72;;;;;;;21.80;59.51;98927.50;5044617;28;20059;-70
2022/05/10 06:55:55;;;;;;;5.55;4.30;;;;;;;22.43;58.40;98928.94;5044699;28;20029;-70
2022/05/10 06:58:21;;;;;;;7.40;4.38;;;;;;;22.72;57.52;98920.78;5044581;28;20021;-70
2022/05/10 07:00:46;;;;;;;5.55;4.30;;;;;;;22.86;57.37;98922.59;5044472;28;20388;-70
2022/05/10 07:03:15;;;;;;;5.57;4.18;;;;;;;23.22;56.79;98925.56;5044496;28;20317;-70
2022/05/10 07:05:42;;;;;;;6.65;4.78;;;;;;;23.72;55.53;98935.66;5044359;28;20045;-70
2022/05/10 07:08:08;;;;;;;8.65;4.82;;;;;;;23.63;55.74;98922.88;5044475;28;20031;-70
2022/05/10 07:10:33;;;;;;;5.78;4.50;;;;;;;23.73;56.19;98922.13;5044586;28;20021;-70
2022/05/10 07:12:59;;;;;;;7.20;4.50;;;;;;;24.54;54.36;98937.97;5044422;28;20347;-70
2022/05/10 07:15:25;;;;;;;7.38;5.50;;;;;;;24.48;53.37;98927.63;5044332;28;20053;-70
2022/05/10 07:17:52;;;;;;;7.80;4.82;;;;;;;24.74;53.77;98929.34;5044283;28;20025;-70
2022/05/10 07:20:19;;;;;;;6.50;4.97;;;;;;;24.55;54.89;98918.13;5044187;28;20036;-70
2022/05/10 07:22:45;;;;;;;7.55;4.80;;;;;;;25.26;52.32;98929.97;5044216;28;20221;-70
2022/05/10 07:25:15;;;;;;;7.60;4.70;;;;;;;25.21;52.57;98924.06;5044137;28;20273;-70
2022/05/10 07:27:41;;;;;;;7.25;5.28;;;;;;;25.20;52.25;98922.34;5044338;28;20027;-70
2022/05/10 07:30:08;;;;;;;8.60;5.55;;;;;;;25.25;52.61;98920.16;5044031;28;20017;-70
2022/05/10 07:32:33;;;;;;;8.35;5.10;;;;;;;25.23;53.16;98921.25;5044028;28;20313;-70
2022/05/10 07:35:01;;;;;;;8.73;5.40;;;;;;;25.72;51.75;98929.25;5044126;28;20032;-70
2022/05/10 07:37:27;;;;;;;7.70;5.20;;;;;;;25.51;52.95;98925.47;5044055;28;20032;-70
2022/05/10 07:39:52;;;;;;;11.32;4.65;;;;;;;26.16;53.07;98924.88;5043898;28;20213;-70
2022/05/10 07:42:18;;;;;;;5.17;4.40;;;;;;;25.82;51.70;98924.88;5043931;28;20021;-70
2022/05/10 07:44:43;;;;;;;6.25;4.80;;;;;;;25.73;52.99;98920.19;5044159;28;20274;-70
2022/05/10 07:47:09;;;;;;;5.97;4.80;;;;;;;26.57;50.37;98924.31;5043880;28;20021;-70
2022/05/10 07:49:34;;;;;;;9.10;4.57;;;;;;;27.16;51.54;98926.69;5043874;28;20380;-70
2022/05/10 07:51:59;;;;;;;6.03;4.30;;;;;;;27.04;51.18;98918.69;5043871;28;20017;-70
2022/05/10 07:54:25;;;;;;;6.22;4.50;;;;;;;27.68;52.30;98925.91;5044106;28;20204;-70
2022/05/10 07:56:50;;;;;;;5.97;4.00;;;;;;;27.95;46.62;98923.63;5043804;28;20025;-70
2022/05/10 07:59:15;;;;;;;7.93;4.35;;;;;;;28.04;47.26;98920.16;5043800;28;20350;-70
2022/05/10 08:01:41;;;;;;;5.32;3.72;;;;;;;28.56;46.26;98911.06;5043616;28;20228;-70
2022/05/10 08:04:08;;;;;;;6.95;4.60;;;;;;;28.41;46.89;98913.25;5043851;28;20091;-70
2022/05/10 08:06:33;;;;;;;5.05;3.80;;;;;;;28.81;45.90;98908.78;5043988;28;20335;-70
2022/05/10 08:08:58;;;;;;;5.75;4.47;;;;;;;29.09;45.29;98916.19;5043659;28;20021;-70
2022/05/10 08:11:23;;;;;;;5.33;3.97;;;;;;;29.37;45.35;98916.38;5043664;28;20018;-70
2022/05/10 08:13:49;;;;;;;4.85;3.85;;;;;;;28.82;46.09;98905.06;5043629;28;20255;-70
2022/05/10 08:16:15;;;;;;;6.60;4.40;;;;;;;29.19;45.63;98908.94;5043646;28;20017;-70
2022/05/10 08:18:41;;;;;;;10.02;4.25;;;;;;;29.65;44.91;98904.75;5043633;28;20025;-70
2022/05/10 08:21:08;;;;;;;4.93;4.30;;;;;;;29.96;43.50;98901.75;5043762;28;20025;-70
2022/05/10 08:23:38;;;;;;;6.07;4.05;;;;;;;29.15;45.36;98902.09;5043835;28;20028;-70
2022/05/10 08:26:05;;;;;;;7.47;4.35;;;;;;;29.49;44.24;98904.44;5043821;28;20018;-70
2022/05/10 08:28:34;;;;;;;6.63;3.83;;;;;;;29.63;43.88;98901.31;5043774;28;20060;-70
2022/05/10 08:30:59;;;;;;;4.85;3.67;;;;;;;29.57;42.63;98891.00;5043459;28;20013;-70
2022/05/10 08:33:28;;;;;;;4.53;3.33;;;;;;;29.87;43.45;98904.47;5044061;28;20036;-70
2022/05/10 08:35:55;;;;;;;7.93;3.58;;;;;;;30.10;43.65;98895.00;5043728;28;20021;-70
2022/05/10 08:38:20;;;;;;;4.57;3.35;;;;;;;30.13;44.10;98901.03;5043484;28;20028;-70
2022/05/10 08:41:03;;;;;;;5.43;3.42;;;;;;;30.50;44.69;98909.28;5045506;28;20038;-70
2022/05/10 08:43:35;;;;;;;5.13;3.70;;;;;;;30.46;42.67;98897.81;5047218;28;20055;-70
2022/05/10 08:46:03;;;;;;;4.82;3.83;;;;;;;29.78;43.68;98895.34;5047157;28;20096;-70
2022/05/10 08:48:31;;;;;;;3.42;3.08;;;;;;;29.63;43.11;98891.34;5047059;28;20324;-70
2022/05/10 08:50:57;;;;;;;5.38;3.55;;;;;;;29.92;45.15;98907.59;5047065;28;20028;-70
2022/05/10 08:53:23;;;;;;;6.13;3.70;;;;;;;30.04;43.47;98895.59;5046978;28;20025;-70
2022/05/10 08:55:56;;;;;;;4.93;3.72;;;;;;;29.86;43.10;98902.78;5047190;28;20066;-70
2022/05/10 08:58:47;;;;;;;4.82;3.85;;;;;;;30.02;43.28;98903.03;5046850;28;20044;-70
2022/05/10 09:01:26;;;;;;;6.00;4.07;;;;;;;30.71;41.82;98890.88;5047018;28;20221;-70
2022/05/10 09:04:06;;;;;;;5.50;3.97;;;;;;;29.48;42.95;98897.28;5046520;28;20029;-70
2022/05/10 09:06:34;;;;;;;5.97;4.03;;;;;;;29.85;44.10;98901.03;5046794;28;20079;-70
2022/05/10 09:09:25;;;;;;;6.18;3.92;;;;;;;29.39;45.91;98892.72;5046645;28;20025;-70
2022/05/10 09:11:52;;;;;;;5.57;3.97;;;;;;;29.76;43.98;98891.91;5046914;28;20021;-70
2022/05/10 09:14:23;;;;;;;6.05;4.28;;;;;;;29.76;43.76;98891.91;5046786;28;20036;-70
2022/05/10 09:16:49;;;;;;;6.47;3.65;;;;;;;30.10;44.18;98884.16;5046575;28;20029;-70
2022/05/10 09:19:16;;;;;;;5.32;4.13;;;;;;;28.70;46.70;98884.47;5046488;28;20021;-70
2022/05/10 09:21:48;;;;;;;5.80;4.10;;;;;;;28.94;46.34;98882.28;5046392;28;20085;-70
2022/05/10 09:24:16;;;;;;;5.50;4.00;;;;;;;29.47;46.20;98892.84;5046663;28;20045;-70
2022/05/10 09:26:44;;;;;;;5.97;4.30;;;;;;;29.62;46.42;98886.03;5046379;28;20059;-70
2022/05/10 09:29:14;;;;;;;7.68;4.68;;;;;;;29.93;43.28;98888.44;5046229;28;20033;-70
2022/05/10 09:37:20;;;;;;;6.88;4.40;;;;;;;29.96;44.05;98881.91;5046157;28;20028;-70
2022/05/10 09:40:03;;;;;;;7.32;4.40;;;;;;;30.25;44.08;98877.31;5046040;28;20225;-70
2022/05/10 09:42:38;;;;;;;6.07;4.50;;;;;;;29.81;46.25;98877.91;5046128;28;20092;-70
2022/05/10 09:45:03;;;;;;;6.95;4.53;;;;;;;30.15;45.04;98874.56;5046118;28;20307;-70
2022/05/10 09:47:30;;;;;;;5.32;4.35;;;;;;;30.27;45.81;98869.84;5045917;28;20025;-70
2022/05/10 09:50:11;;;;;;;7.20;4.40;;;;;;;30.23;43.46;98873.88;5045932;28;20025;-70
2022/05/10 09:52:38;;;;;;;4.80;4.28;;;;;;;30.14;44.83;98869.28;5044747;28;20025;-70
2022/05/10 09:55:09;;;;;;;5.05;3.72;;;;;;;29.87;45.21;98869.19;5046061;28;20029;-70
2022/05/10 09:57:37;;;;;;;7.47;4.50;;;;;;;29.24;46.52;98868.69;5045770;28;20026;-70
2022/05/10 10:00:06;;;;;;;4.40;3.85;;;;;;;29.68;46.32;98869.19;5045911;28;20037;-70
2022/05/10 10:02:35;;;;;;;7.25;4.15;;;;;;;29.46;46.56;98855.88;5045483;28;20033;-70
2022/05/10 10:05:26;;;;;;;7.72;4.32;;;;;;;29.39;46.19;98868.28;5045545;28;20049;-70
2022/05/10 10:07:57;;;;;;;6.40;4.23;;;;;;;29.32;46.42;98864.44;5045642;28;20067;-70
2022/05/10 10:10:35;;;;;;;4.15;3.35;;;;;;;29.44;47.07;98863.28;5045530;28;20120;-70
2022/05/10 10:13:27;;;;;;;4.90;4.00;;;;;;;29.53;47.47;98857.88;5045452;28;20325;-70
2022/05/10 10:15:53;;;;;;;5.35;4.15;;;;;;;29.80;45.32;98859.91;5045692;28;20017;-70
2022/05/10 10:18:44;;;;;;;6.88;3.75;;;;;;;29.97;43.99;98851.91;5045600;28;20352;-70
2022/05/10 10:21:15;;;;;;;5.60;3.72;;;;;;;29.96;42.98;98855.59;5045253;28;20281;-70
2022/05/10 10:23:47;;;;;;;9.57;4.67;;;;;;;29.55;44.77;98852.31;5045311;28;20096;-70
2022/05/10 10:26:21;;;;;;;7.85;3.85;;;;;;;29.27;45.96;98854.84;5045246;28;20253;-70
2022/05/10 10:29:07;;;;;;;6.80;4.45;;;;;;;29.18;46.18;98854.84;5045166;28;20324;-70
2022/05/10 10:31:44;;;;;;;6.35;4.00;;;;;;;28.94;50.42;98847.06;5045250;28;20025;-70
2022/05/10 10:34:19;;;;;;;5.43;4.07;;;;;;;28.80;46.69;98852.88;5045078;28;20124;-70
2022/05/10 10:36:54;;;;;;;6.90;3.80;;;;;;;28.77;50.41;98842.31;5045047;28;20047;-70
2022/05/10 10:39:28;;;;;;;5.20;3.80;;;;;;;28.77;49.59;98849.59;5044913;28;20018;-70
2022/05/10 10:42:24;;;;;;;6.88;3.97;;;;;;;28.67;48.62;98835.97;5044870;28;20017;-70
2022/05/10 10:44:56;;;;;;;5.57;4.15;;;;;;;28.85;45.57;98839.75;5044889;28;20027;-70
2022/05/10 10:47:29;;;;;;;5.90;3.40;;;;;;;28.89;46.30;98835.78;5044847;28;20029;-70
2022/05/10 10:50:12;;;;;;;6.07;3.97;;;;;;;28.64;47.56;98825.47;5044803;28;20021;-70
2022/05/10 10:52:37;;;;;;;6.13;3.97;;;;;;;28.23;48.04;98825.53;5044763;28;20029;-70
2022/05/10 10:55:06;;;;;;;5.22;3.92;;;;;;;27.98;48.42;98833.19;5044804;28;20052;-70
2022/05/10 10:57:41;;;;;;;6.82;4.45;;;;;;;27.83;48.86;98824.53;5044569;28;20025;-70
2022/05/10 11:00:27;;;;;;;5.95;3.60;;;;;;;28.01;47.64;98824.81;5044590;28;20328;-70
2022/05/10 11:03:27;;;;;;;6.43;3.95;;;;;;;28.33;47.80;98823.72;5044235;28;20301;-70
2022/05/10 11:06:20;;;;;;;4.95;3.70;;;;;;;28.34;44.79;98811.88;5054553;28;20387;-70
2022/05/10 11:09:20;;;;;;;6.75;3.92;;;;;;;28.71;45.89;98820.31;5044448;28;20252;-70
2022/05/10 11:12:08;;;;;;;6.28;4.10;;;;;;;28.68;46.70;98821.47;5044440;28;20021;-70
2022/05/10 11:15:01;;;;;;;6.03;3.53;;;;;;;28.80;44.68;98812.25;5044439;28;20025;-70
2022/05/10 11:17:49;;;;;;;4.30;3.20;;;;;;;28.80;45.57;98804.13;5044406;28;20029;-70
2022/05/10 11:20:55;;;;;;;5.10;3.15;;;;;;;28.87;45.09;98810.69;5044258;28;20089;-70
2022/05/10 11:23:34;;;;;;;5.85;3.58;;;;;;;28.41;46.12;98801.38;5050372;28;20348;-70
2022/05/10 11:26:15;;;;;;;6.38;4.20;;;;;;;28.41;45.66;98799.50;5044444;28;20022;-70
2022/05/10 11:28:49;;;;;;;6.47;3.85;;;;;;;28.35;46.54;98799.22;5044204;28;20021;-70
2022/05/10 11:31:52;;;;;;;4.07;3.30;;;;;;;28.39;45.93;98796.09;5044131;28;20084;-70
2022/05/10 11:34:56;;;;;;;4.82;3.53;;;;;;;28.19;46.43;98799.69;5044074;28;20036;-70
2022/05/10 11:37:35;;;;;;;5.70;3.88;;;;;;;28.01;47.66;98787.81;5050473;28;20033;-70
2022/05/10 11:40:27;;;;;;;4.13;3.72;;;;;;;28.01;46.19;98782.38;5043956;28;20072;-70
2022/05/10 11:43:09;;;;;;;7.18;4.05;;;;;;;27.76;47.06;98777.38;5044012;28;20025;-70
2022/05/10 11:46:04;;;;;;;5.07;3.33;;;;;;;27.35;46.18;98777.34;5043914;28;20021;-70
2022/05/10 11:48:57;;;;;;;8.10;3.70;;;;;;;27.66;48.16;98781.00;5044573;28;20432;-70
2022/05/10 11:51:38;;;;;;;6.78;3.65;;;;;;;27.31;47.92;98770.50;5046750;28;20215;-70
2022/05/10 11:54:41;;;;;;;5.32;3.30;;;;;;;27.70;48.31;98767.06;5043972;28;20364;-70
2022/05/10 11:57:14;;;;;;;4.50;3.10;;;;;;;27.29;45.70;98767.06;5062026;28;20391;-70
2022/05/10 11:59:41;;;;;;;5.15;3.20;;;;;;;27.42;44.79;98765.03;5046275;28;20029;-70
2022/05/10 12:02:29;;;;;;;4.05;2.92;;;;;;;27.11;42.30;98763.16;5043697;28;20024;-70
2022/05/10 12:05:09;;;;;;;3.63;2.55;;;;;;;27.06;46.29;98754.59;5043545;28;20313;-70